Time;durP1;ratioP1;P1;durP2;ratioP2;P2;SDS_P1;SDS_P2;PMS_P1;PMS_P2;Temp;Humidity;BMP_temperature;BMP_pressure;BME280_temperature;BME280_humidity;BME280_pressure;Samples;Min_cycle;Max_cycle;Signal;HPM_P1;HPM_P2
2023/03/14 00:02:15;;;;;;;6.88;3.25;;;8.30;71.80;;;;;;6132064;23;20056;-79
2023/03/14 00:04:42;;;;;;;10.07;3.75;;;8.20;72.10;;;;;;6181695;23;20047;-80
2023/03/14 00:07:13;;;;;;;9.93;3.90;;;8.20;72.30;;;;;;6134206;23;20025;-80
2023/03/14 00:09:40;;;;;;;9.93;3.83;;;8.20;72.30;;;;;;6157641;23;20031;-79
2023/03/14 00:12:08;;;;;;;8.23;3.58;;;8.20;72.50;;;;;;6133217;23;20028;-79
2023/03/14 00:14:36;;;;;;;9.88;4.22;;;8.20;72.50;;;;;;6157410;23;20096;-80
2023/03/14 00:17:03;;;;;;;7.82;3.70;;;8.10;72.60;;;;;;6134254;23;20032;-81
2023/03/14 00:19:30;;;;;;;9.25;3.70;;;8.10;72.90;;;;;;6158819;23;20047;-79
2023/03/14 00:21:57;;;;;;;10.50;4.35;;;8.10;73.00;;;;;;6157505;23;20060;-81
2023/03/14 00:24:24;;;;;;;8.88;3.33;;;8.10;72.70;;;;;;6133140;23;20025;-81
2023/03/14 00:26:51;;;;;;;8.65;3.65;;;8.10;73.20;;;;;;6133972;23;20025;-80
2023/03/14 00:29:18;;;;;;;8.90;3.17;;;8.10;73.10;;;;;;6133768;23;20021;-81
2023/03/14 00:31:45;;;;;;;11.82;3.83;;;8.10;73.20;;;;;;6158199;23;20027;-80
2023/03/14 00:34:12;;;;;;;7.93;2.97;;;8.20;73.00;;;;;;6133407;23;20771;-78
2023/03/14 00:36:39;;;;;;;8.02;3.63;;;8.20;72.80;;;;;;6158732;23;20032;-80
2023/03/14 00:39:06;;;;;;;9.98;3.85;;;8.20;72.80;;;;;;6158136;23;20025;-78
2023/03/14 00:41:33;;;;;;;7.97;3.47;;;8.20;73.10;;;;;;6136358;23;20039;-81
2023/03/14 00:44:01;;;;;;;9.95;4.03;;;8.10;73.10;;;;;;6134806;23;20021;-79
2023/03/14 00:46:28;;;;;;;9.05;3.72;;;8.10;73.50;;;;;;6134604;23;20017;-79
2023/03/14 00:48:55;;;;;;;10.38;3.60;;;8.00;73.80;;;;;;6159284;23;20100;-79
2023/03/14 00:51:22;;;;;;;8.40;3.85;;;8.00;73.70;;;;;;6135318;23;20071;-80
2023/03/14 00:53:50;;;;;;;7.68;3.85;;;8.10;73.90;;;;;;6133985;23;20590;-77
2023/03/14 00:56:19;;;;;;;10.07;3.33;;;8.00;73.90;;;;;;6132244;23;20843;-79
2023/03/14 00:58:46;;;;;;;10.20;3.60;;;8.10;74.20;;;;;;6133504;23;20115;-78
2023/03/14 01:01:18;;;;;;;8.55;4.20;;;8.10;73.90;;;;;;6133993;23;20636;-80
2023/03/14 01:03:46;;;;;;;8.43;3.10;;;8.10;74.00;;;;;;6134071;23;20021;-79
2023/03/14 01:06:20;;;;;;;8.07;3.75;;;8.10;74.10;;;;;;6134155;23;20055;-77
2023/03/14 01:08:48;;;;;;;9.98;4.38;;;8.10;74.20;;;;;;6157700;23;20029;-79
2023/03/14 01:11:27;;;;;;;9.80;3.63;;;8.10;74.30;;;;;;6132845;23;20027;-78
2023/03/14 01:13:55;;;;;;;8.77;3.90;;;8.10;74.20;;;;;;6133436;23;20068;-78
2023/03/14 01:16:24;;;;;;;7.47;3.58;;;8.00;74.60;;;;;;6133488;23;20047;-77
2023/03/14 01:18:52;;;;;;;9.60;3.53;;;8.00;74.50;;;;;;6158440;23;20029;-78
2023/03/14 01:21:30;;;;;;;10.60;3.95;;;8.10;74.40;;;;;;6184551;23;20116;-78
2023/03/14 01:23:59;;;;;;;7.57;3.70;;;8.00;74.70;;;;;;6133124;23;20528;-79
2023/03/14 01:26:29;;;;;;;9.35;4.47;;;7.90;74.70;;;;;;6134604;23;20075;-79
2023/03/14 01:28:57;;;;;;;8.20;3.78;;;7.90;74.90;;;;;;6134154;23;20021;-79
2023/03/14 01:31:25;;;;;;;11.23;4.22;;;7.90;75.30;;;;;;6157241;23;20029;-79
2023/03/14 01:33:53;;;;;;;8.80;3.75;;;7.80;75.60;;;;;;6158437;23;20056;-78
2023/03/14 01:36:20;;;;;;;10.23;4.03;;;7.80;76.30;;;;;;6133447;23;20025;-79
2023/03/14 01:38:48;;;;;;;6.03;3.22;;;7.80;76.50;;;;;;6157863;23;20045;-78
2023/03/14 01:41:20;;;;;;;7.78;3.20;;;7.70;76.50;;;;;;6133600;23;20028;-78
2023/03/14 01:43:48;;;;;;;8.25;4.10;;;7.70;76.70;;;;;;6157647;23;20128;-78
2023/03/14 01:46:35;;;;;;;10.50;3.97;;;7.70;76.60;;;;;;6134113;23;20715;-78
2023/03/14 01:49:09;;;;;;;9.32;4.00;;;7.70;76.70;;;;;;6136215;23;20025;-79
2023/03/14 01:51:45;;;;;;;8.85;3.47;;;7.60;77.00;;;;;;6133237;23;20029;-78
2023/03/14 01:54:43;;;;;;;9.23;3.38;;;7.70;77.20;;;;;;6157887;23;20021;-78
2023/03/14 01:57:27;;;;;;;10.88;4.50;;;7.70;77.50;;;;;;6157622;23;20025;-78
2023/03/14 02:00:11;;;;;;;10.43;4.35;;;7.60;77.70;;;;;;6157645;23;20044;-78
2023/03/14 02:02:47;;;;;;;8.57;3.47;;;7.60;77.70;;;;;;6133944;23;20033;-79
2023/03/14 02:05:20;;;;;;;10.68;3.95;;;7.60;77.80;;;;;;6133016;23;20390;-78
2023/03/14 02:07:56;;;;;;;7.88;3.80;;;7.60;78.10;;;;;;6133924;23;20021;-79
2023/03/14 02:10:34;;;;;;;10.38;3.85;;;7.60;78.60;;;;;;6158011;23;20045;-78
2023/03/14 02:13:04;;;;;;;8.57;3.22;;;7.50;78.60;;;;;;6157047;23;20072;-76
2023/03/14 02:15:58;;;;;;;10.00;3.40;;;7.60;78.80;;;;;;6139466;23;20021;-78
2023/03/14 02:18:52;;;;;;;11.32;3.92;;;7.60;78.60;;;;;;6138837;23;20100;-79
2023/03/14 02:22:09;;;;;;;12.60;4.10;;;7.60;78.50;;;;;;6162407;23;20040;-79
2023/03/14 02:25:27;;;;;;;10.60;4.07;;;7.60;78.50;;;;;;6182821;23;20056;-79
2023/03/14 02:27:55;;;;;;;9.30;3.45;;;7.70;78.90;;;;;;6132596;23;20021;-76
2023/03/14 02:30:28;;;;;;;9.07;4.03;;;7.60;78.60;;;;;;6158476;23;20352;-81
2023/03/14 02:33:02;;;;;;;7.55;4.00;;;7.60;78.90;;;;;;6134275;23;20021;-79
2023/03/14 02:35:57;;;;;;;7.97;3.92;;;7.60;78.90;;;;;;6157815;23;20348;-79
2023/03/14 02:38:33;;;;;;;9.80;3.75;;;7.50;79.30;;;;;;6154835;23;20040;-79
2023/03/14 02:41:02;;;;;;;8.85;3.80;;;7.50;79.30;;;;;;6158316;23;20456;-79
2023/03/14 02:43:34;;;;;;;11.07;4.30;;;7.50;79.40;;;;;;6158168;23;20020;-80
2023/03/14 02:46:05;;;;;;;12.63;4.25;;;7.50;80.40;;;;;;6157955;23;20025;-78
2023/03/14 02:49:03;;;;;;;9.60;4.18;;;7.50;79.90;;;;;;6159315;23;20021;-78
2023/03/14 02:51:32;;;;;;;8.85;3.53;;;7.40;79.90;;;;;;6132856;23;20029;-79
2023/03/14 02:53:59;;;;;;;12.88;3.80;;;7.40;79.90;;;;;;6158809;23;20017;-79
2023/03/14 02:56:26;;;;;;;11.98;4.38;;;7.40;80.10;;;;;;6133556;23;20017;-78
2023/03/14 02:58:54;;;;;;;8.23;4.13;;;7.40;80.30;;;;;;6133134;23;20083;-79
2023/03/14 03:01:47;;;;;;;9.30;3.47;;;7.40;80.50;;;;;;6160192;23;20087;-78
2023/03/14 03:04:14;;;;;;;9.75;3.25;;;7.40;80.60;;;;;;6159110;23;20080;-80
2023/03/14 03:06:45;;;;;;;7.90;4.20;;;7.40;80.90;;;;;;6182523;23;20301;-79
2023/03/14 03:09:13;;;;;;;6.88;2.85;;;7.40;80.80;;;;;;6183484;23;20453;-78
2023/03/14 03:11:40;;;;;;;9.23;3.67;;;7.40;80.80;;;;;;6157349;23;20075;-80
2023/03/14 03:14:10;;;;;;;9.50;3.65;;;7.40;80.80;;;;;;6134140;23;20021;-79
2023/03/14 03:16:38;;;;;;;8.00;3.38;;;7.40;80.90;;;;;;6158174;23;20020;-79
2023/03/14 03:19:05;;;;;;;9.48;3.50;;;7.40;80.80;;;;;;6134727;23;20025;-79
2023/03/14 03:21:32;;;;;;;9.77;3.85;;;7.40;80.90;;;;;;6132495;23;20791;-79
2023/03/14 03:23:59;;;;;;;10.68;4.10;;;7.40;80.90;;;;;;6134230;23;20329;-79
2023/03/14 03:26:26;;;;;;;11.18;3.58;;;7.40;81.20;;;;;;6132676;23;20048;-80
2023/03/14 03:28:53;;;;;;;9.63;3.42;;;7.40;81.20;;;;;;6157443;23;20020;-82
2023/03/14 03:31:22;;;;;;;10.48;3.30;;;7.40;81.20;;;;;;6133509;23;20021;-79
2023/03/14 03:33:49;;;;;;;7.85;3.58;;;7.40;81.30;;;;;;6157342;23;20024;-78
2023/03/14 03:36:22;;;;;;;7.25;3.38;;;7.60;81.00;;;;;;6134518;23;20029;-77
2023/03/14 03:38:51;;;;;;;;;;;7.70;80.40;;;;;;6135498;23;20679;-79
2023/03/14 03:41:18;;;;;;;8.50;2.72;;;7.70;80.00;;;;;;6159565;23;19916;-77
2023/03/14 03:43:49;;;;;;;4.93;2.42;;;7.70;79.90;;;;;;6135697;23;20353;-79
2023/03/14 03:46:24;;;;;;;8.57;3.38;;;7.70;80.00;;;;;;6136975;23;20044;-78
2023/03/14 03:48:56;;;;;;;6.18;2.70;;;7.80;79.90;;;;;;6159660;23;20025;-79
2023/03/14 03:51:24;;;;;;;6.93;3.17;;;7.80;80.00;;;;;;6132813;23;20044;-79
2023/03/14 03:53:52;;;;;;;10.10;4.05;;;7.80;79.60;;;;;;6137798;23;20027;-78
2023/03/14 03:56:26;;;;;;;10.10;3.03;;;7.70;79.60;;;;;;6135256;23;20075;-78
2023/03/14 03:58:54;;;;;;;8.60;4.03;;;7.80;79.40;;;;;;6134229;23;20357;-79
2023/03/14 04:01:21;;;;;;;12.63;3.33;;;7.80;79.30;;;;;;6133998;23;20541;-79
2023/03/14 04:03:51;;;;;;;8.57;3.63;;;7.80;79.40;;;;;;6135336;23;20029;-78
2023/03/14 04:06:19;;;;;;;7.45;3.00;;;7.70;79.40;;;;;;6134948;23;20028;-79
2023/03/14 04:08:48;;;;;;;8.75;3.47;;;7.70;79.60;;;;;;6135064;23;20449;-79
2023/03/14 04:11:30;;;;;;;9.68;3.67;;;7.70;79.80;;;;;;6136505;23;20096;-78
2023/03/14 04:14:11;;;;;;;8.68;3.38;;;7.60;80.20;;;;;;6136613;23;20028;-78
2023/03/14 04:16:38;;;;;;;5.95;2.83;;;7.60;80.20;;;;;;6133213;23;20092;-79
2023/03/14 04:19:16;;;;;;;5.43;2.53;;;7.50;80.40;;;;;;6160508;23;20048;-78
2023/03/14 04:21:46;;;;;;;8.50;3.28;;;7.50;80.50;;;;;;6134526;23;20471;-78
2023/03/14 04:24:17;;;;;;;6.28;2.88;;;7.50;80.70;;;;;;6134152;23;20058;-79
2023/03/14 04:26:47;;;;;;;7.35;2.83;;;7.50;81.30;;;;;;6134163;23;20032;-76
2023/03/14 04:29:15;;;;;;;6.28;3.10;;;7.50;80.70;;;;;;6160601;23;20021;-78
2023/03/14 04:31:44;;;;;;;7.38;2.50;;;7.40;80.60;;;;;;6135670;23;20024;-79
2023/03/14 04:34:11;;;;;;;9.27;2.90;;;7.40;80.40;;;;;;6135928;23;20109;-79
2023/03/14 04:36:51;;;;;;;4.65;1.75;;;7.40;80.60;;;;;;6099770;23;20017;-79
2023/03/14 04:39:25;;;;;;;7.60;2.53;;;7.40;80.50;;;;;;6098311;23;20056;-78
2023/03/14 04:42:00;;;;;;;9.88;2.83;;;7.50;80.40;;;;;;6076964;23;20021;-78
2023/03/14 04:44:28;;;;;;;6.90;2.47;;;7.50;79.90;;;;;;6075083;23;20780;-79
2023/03/14 04:46:55;;;;;;;7.50;2.50;;;7.50;79.60;;;;;;6076109;23;20085;-78
2023/03/14 04:49:22;;;;;;;5.65;2.55;;;7.60;79.70;;;;;;6074260;23;20022;-77
2023/03/14 04:51:52;;;;;;;8.25;2.92;;;7.60;79.50;;;;;;6074930;23;20026;-81
2023/03/14 04:54:21;;;;;;;7.65;3.05;;;7.70;79.00;;;;;;6077888;23;20018;-81
2023/03/14 04:56:56;;;;;;;7.00;2.78;;;7.60;78.60;;;;;;6076222;23;20021;-80
2023/03/14 04:59:23;;;;;;;9.32;3.25;;;7.60;78.80;;;;;;6074539;23;20037;-79
2023/03/14 05:01:54;;;;;;;10.55;2.72;;;7.60;79.00;;;;;;6075553;23;20490;-80
2023/03/14 05:04:44;;;;;;;6.32;2.33;;;7.60;79.00;;;;;;6062099;23;20048;-81
2023/03/14 05:07:34;;;;;;;8.15;3.35;;;7.60;78.90;;;;;;6121340;23;20032;-80
2023/03/14 05:10:21;;;;;;;6.75;2.85;;;7.50;78.70;;;;;;6161401;23;20541;-79
2023/03/14 05:13:24;;;;;;;6.07;1.97;;;7.50;78.80;;;;;;6103652;23;20022;-78
2023/03/14 05:16:14;;;;;;;6.38;2.78;;;7.60;79.10;;;;;;6146195;23;20043;-77
2023/03/14 05:19:05;;;;;;;7.40;3.33;;;7.50;79.20;;;;;;6134879;23;20025;-78
2023/03/14 05:21:50;;;;;;;7.10;2.97;;;7.50;79.30;;;;;;6158021;23;20017;-78
2023/03/14 05:24:32;;;;;;;7.53;2.87;;;7.50;79.40;;;;;;6170171;23;20025;-78
2023/03/14 05:27:03;;;;;;;8.70;3.08;;;7.50;79.30;;;;;;6159038;23;20048;-79
2023/03/14 05:29:56;;;;;;;6.32;2.20;;;7.60;79.20;;;;;;6155943;23;20028;-77
2023/03/14 05:32:46;;;;;;;6.90;2.75;;;7.70;79.30;;;;;;6156591;23;20401;-80
2023/03/14 05:35:22;;;;;;;5.47;2.28;;;7.80;78.60;;;;;;6134973;23;20028;-77
2023/03/14 05:38:06;;;;;;;7.32;2.45;;;7.90;78.20;;;;;;6136970;23;20476;-79
2023/03/14 05:40:56;;;;;;;10.02;2.55;;;8.00;78.10;;;;;;6153852;23;20528;-77
2023/03/14 05:43:36;;;;;;;6.03;2.10;;;8.10;77.50;;;;;;6183029;23;20032;-79
2023/03/14 05:46:33;;;;;;;7.70;2.10;;;8.10;77.80;;;;;;6165141;23;20107;-78
2023/03/14 05:49:25;;;;;;;7.68;3.65;;;8.10;77.20;;;;;;6156007;23;20043;-77
2023/03/14 05:52:10;;;;;;;5.90;2.70;;;8.10;77.50;;;;;;6160233;23;20072;-79
2023/03/14 05:54:45;;;;;;;7.88;3.40;;;8.20;77.50;;;;;;6138327;23;20480;-79
2023/03/14 05:57:48;;;;;;;6.05;2.75;;;8.20;77.70;;;;;;6046585;23;20162;-78
2023/03/14 06:00:41;;;;;;;8.40;2.65;;;8.30;77.10;;;;;;6134116;23;20048;-78
2023/03/14 06:03:19;;;;;;;8.00;2.05;;;8.30;77.00;;;;;;6160383;23;20017;-79
2023/03/14 06:05:51;;;;;;;11.00;2.28;;;8.40;77.20;;;;;;6132898;23;20116;-79
2023/03/14 06:08:19;;;;;;;6.83;3.40;;;8.40;76.90;;;;;;6157941;23;20100;-78
2023/03/14 06:10:46;;;;;;;7.55;2.95;;;8.70;75.70;;;;;;6157094;23;20367;-78
2023/03/14 06:13:15;;;;;;;9.10;3.28;;;8.90;75.20;;;;;;6161952;23;20081;-80
2023/03/14 06:15:43;;;;;;;7.28;3.08;;;8.50;73.80;;;;;;6160189;23;20044;-81
2023/03/14 06:18:12;;;;;;;3.92;0.93;;;9.30;73.50;;;;;;6157693;23;20028;-79
2023/03/14 06:20:40;;;;;;;6.45;3.05;;;9.40;73.30;;;;;;6159270;23;20013;-80
2023/03/14 06:23:10;;;;;;;9.05;2.53;;;9.50;73.50;;;;;;6158513;23;20031;-79
2023/03/14 06:25:37;;;;;;;5.40;2.15;;;9.60;73.20;;;;;;6158545;23;20024;-80
2023/03/14 06:28:05;;;;;;;5.30;2.42;;;9.80;72.50;;;;;;6184467;23;20392;-81
2023/03/14 06:30:32;;;;;;;6.47;2.30;;;9.90;72.20;;;;;;6131813;23;20017;-80
2023/03/14 06:32:59;;;;;;;3.53;1.58;;;9.90;72.50;;;;;;6158078;23;20017;-80
2023/03/14 06:35:27;;;;;;;13.13;3.22;;;10.10;71.70;;;;;;6133955;23;20025;-80
2023/03/14 06:37:54;;;;;;;7.47;2.97;;;10.30;71.00;;;;;;6158220;23;20025;-80
2023/03/14 06:40:21;;;;;;;7.70;2.67;;;10.40;70.60;;;;;;6133123;23;20029;-80
2023/03/14 06:43:07;;;;;;;6.78;2.30;;;10.60;70.40;;;;;;6161739;23;20192;-78
2023/03/14 06:45:36;;;;;;;6.43;2.15;;;10.80;70.90;;;;;;6155919;23;20028;-81
2023/03/14 06:48:03;;;;;;;8.30;2.53;;;10.80;70.00;;;;;;6132000;23;20461;-79
2023/03/14 06:50:37;;;;;;;7.68;2.63;;;10.70;69.90;;;;;;6135359;23;20033;-78
2023/03/14 06:53:05;;;;;;;6.22;2.53;;;11.20;70.60;;;;;;6152091;23;20464;-78
2023/03/14 06:55:34;;;;;;;10.10;2.65;;;11.20;69.90;;;;;;6121823;23;20017;-79
2023/03/14 06:58:02;;;;;;;9.93;2.58;;;11.10;69.30;;;;;;6122160;23;20055;-79
2023/03/14 07:00:31;;;;;;;8.00;3.38;;;11.10;70.00;;;;;;6151076;23;20025;-81
2023/03/14 07:02:58;;;;;;;9.38;3.17;;;11.10;70.40;;;;;;6146037;23;20450;-80
2023/03/14 07:05:33;;;;;;;6.97;3.33;;;10.90;70.40;;;;;;6146519;23;20021;-79
2023/03/14 07:08:00;;;;;;;8.35;2.35;;;11.10;70.30;;;;;;6145856;23;20104;-79
2023/03/14 07:10:28;;;;;;;8.93;3.00;;;11.20;70.60;;;;;;6173819;23;20028;-79
2023/03/14 07:12:55;;;;;;;4.78;2.00;;;11.30;70.50;;;;;;6126462;23;20796;-80
2023/03/14 07:15:25;;;;;;;7.25;2.63;;;11.30;70.70;;;;;;6128024;23;20304;-78
2023/03/14 07:17:57;;;;;;;6.07;2.35;;;11.30;70.50;;;;;;6126374;23;20017;-78
2023/03/14 07:20:25;;;;;;;7.97;2.72;;;11.40;70.80;;;;;;6147508;23;20514;-77
2023/03/14 07:22:54;;;;;;;6.13;2.33;;;11.50;70.70;;;;;;6143063;23;20357;-78
2023/03/14 07:25:32;;;;;;;5.38;1.92;;;11.70;70.70;;;;;;6123399;23;20087;-78
2023/03/14 07:28:01;;;;;;;5.88;2.53;;;11.80;70.40;;;;;;6122259;23;20021;-80
2023/03/14 07:30:29;;;;;;;3.83;1.70;;;12.00;70.10;;;;;;6123625;23;20031;-80
2023/03/14 07:32:58;;;;;;;6.07;1.98;;;12.10;69.30;;;;;;6143836;23;20029;-78
2023/03/14 07:35:25;;;;;;;6.55;2.55;;;12.10;69.30;;;;;;6120473;23;20025;-79
2023/03/14 07:37:52;;;;;;;5.00;2.50;;;12.30;69.40;;;;;;6121514;23;20031;-79
2023/03/14 07:40:30;;;;;;;5.05;2.15;;;12.40;68.70;;;;;;6122311;23;20029;-79
2023/03/14 07:42:59;;;;;;;7.22;2.50;;;12.50;68.20;;;;;;6148258;23;20091;-81
2023/03/14 07:45:35;;;;;;;8.82;2.63;;;12.60;68.20;;;;;;6126617;23;20025;-77
2023/03/14 07:48:08;;;;;;;;;;;12.80;68.00;;;;;;6124055;23;20025;-79
2023/03/14 07:50:35;;;;;;;7.07;1.85;;;12.90;67.60;;;;;;6145680;23;19947;-80
2023/03/14 07:53:05;;;;;;;6.35;2.35;;;13.10;67.60;;;;;;6172837;23;20027;-78
2023/03/14 07:55:33;;;;;;;6.00;2.45;;;13.10;67.20;;;;;;6126531;23;20047;-80
2023/03/14 07:58:03;;;;;;;6.95;2.28;;;13.20;67.90;;;;;;6174543;23;20009;-81
2023/03/14 08:00:30;;;;;;;7.45;2.25;;;13.20;67.90;;;;;;6128935;23;20028;-79
2023/03/14 08:02:57;;;;;;;12.90;2.13;;;13.20;67.70;;;;;;6151227;23;20103;-79
2023/03/14 08:05:24;;;;;;;6.72;2.85;;;13.20;68.00;;;;;;6170995;23;20051;-80
2023/03/14 08:07:52;;;;;;;5.45;2.10;;;13.30;67.90;;;;;;6117005;23;20024;-80
2023/03/14 08:10:22;;;;;;;8.80;2.90;;;13.40;68.10;;;;;;6146197;23;20087;-78
2023/03/14 08:12:50;;;;;;;5.03;2.03;;;13.70;68.40;;;;;;6168407;23;20021;-81
2023/03/14 08:15:17;;;;;;;10.20;3.03;;;13.80;66.90;;;;;;6118358;23;20731;-79
2023/03/14 08:17:45;;;;;;;8.10;1.90;;;13.80;66.80;;;;;;6120292;23;20027;-80
2023/03/14 08:20:13;;;;;;;7.35;2.38;;;14.00;67.00;;;;;;6145461;23;20021;-79
2023/03/14 08:22:40;;;;;;;7.45;2.42;;;14.00;65.90;;;;;;6119175;23;20029;-78
2023/03/14 08:25:08;;;;;;;6.60;2.40;;;14.10;65.40;;;;;;6137703;23;20033;-78
2023/03/14 08:27:39;;;;;;;7.30;2.60;;;14.20;65.00;;;;;;6140208;23;20028;-79
2023/03/14 08:30:08;;;;;;;5.25;1.58;;;14.30;65.10;;;;;;6163395;23;20026;-79
2023/03/14 08:32:36;;;;;;;7.57;1.52;;;14.50;65.10;;;;;;6140998;23;20521;-79
2023/03/14 08:35:05;;;;;;;5.85;1.67;;;14.30;64.50;;;;;;6115303;23;20521;-79
2023/03/14 08:37:33;;;;;;;5.18;2.00;;;14.40;64.30;;;;;;6117514;23;20026;-79
2023/03/14 08:40:00;;;;;;;5.18;2.17;;;14.40;64.40;;;;;;6140504;23;20040;-77
2023/03/14 08:42:27;;;;;;;4.47;1.20;;;14.50;64.50;;;;;;6159154;23;20460;-79
2023/03/14 08:44:54;;;;;;;4.50;1.60;;;14.70;64.50;;;;;;6133041;23;20099;-81
2023/03/14 08:47:21;;;;;;;5.20;2.00;;;14.80;63.80;;;;;;6111742;23;20152;-78
2023/03/14 08:49:51;;;;;;;3.97;1.27;;;14.80;63.40;;;;;;6160612;23;20129;-78
2023/03/14 08:52:18;;;;;;;5.25;1.35;;;14.80;63.90;;;;;;6116219;23;20026;-79
2023/03/14 08:54:46;;;;;;;4.70;1.75;;;14.90;63.30;;;;;;6085672;23;20053;-78
2023/03/14 08:57:13;;;;;;;4.70;1.60;;;14.90;63.30;;;;;;6133127;23;20025;-78
2023/03/14 08:59:40;;;;;;;4.82;1.58;;;15.00;62.80;;;;;;6109079;23;20044;-76
2023/03/14 09:02:12;;;;;;;5.20;1.52;;;15.10;62.70;;;;;;6084791;23;20230;-77
2023/03/14 09:04:40;;;;;;;3.10;1.65;;;15.00;62.30;;;;;;6085828;23;20724;-77
2023/03/14 09:07:07;;;;;;;4.25;1.48;;;15.10;62.80;;;;;;6105910;23;20052;-80
2023/03/14 09:09:34;;;;;;;5.47;1.50;;;15.10;63.50;;;;;;6097101;23;20021;-77
2023/03/14 09:12:01;;;;;;;4.03;1.35;;;15.10;62.80;;;;;;6086463;23;20017;-78
2023/03/14 09:14:28;;;;;;;3.58;1.35;;;15.20;62.50;;;;;;6084424;23;20028;-77
2023/03/14 09:16:55;;;;;;;4.57;1.42;;;15.30;62.70;;;;;;6107482;23;20022;-79
2023/03/14 09:19:23;;;;;;;7.57;1.80;;;15.20;63.40;;;;;;6087671;23;20319;-79
2023/03/14 09:21:50;;;;;;;3.75;1.60;;;15.30;63.30;;;;;;6135359;23;20502;-79
2023/03/14 09:24:17;;;;;;;4.95;2.22;;;15.50;63.50;;;;;;6108237;23;20040;-78
2023/03/14 09:26:44;;;;;;;5.20;1.50;;;15.60;63.80;;;;;;6136741;23;20029;-75
2023/03/14 09:29:13;;;;;;;4.15;1.27;;;15.70;63.30;;;;;;6160779;23;20036;-78
2023/03/14 09:31:40;;;;;;;6.05;1.38;;;15.80;62.90;;;;;;6136362;23;20362;-81
2023/03/14 09:34:07;;;;;;;6.72;1.27;;;15.90;62.30;;;;;;6160733;23;20026;-78
2023/03/14 09:36:34;;;;;;;8.50;1.27;;;16.00;62.50;;;;;;6136606;23;20030;-78
2023/03/14 09:39:02;;;;;;;5.90;1.20;;;16.20;62.90;;;;;;6136917;23;20343;-81
2023/03/14 09:41:34;;;;;;;4.68;1.15;;;16.30;63.00;;;;;;6135147;23;20135;-79
2023/03/14 09:44:08;;;;;;;6.38;1.30;;;16.40;63.10;;;;;;6134873;23;20029;-80
2023/03/14 09:46:39;;;;;;;6.40;1.58;;;16.40;62.60;;;;;;6136998;23;20026;-80
2023/03/14 09:49:14;;;;;;;4.32;1.25;;;16.50;62.40;;;;;;6135573;23;20032;-78
2023/03/14 09:51:43;;;;;;;8.85;1.63;;;16.50;62.20;;;;;;6135975;23;20049;-79
2023/03/14 09:54:42;;;;;;;4.70;1.30;;;16.40;62.30;;;;;;6136315;23;20600;-78
2023/03/14 09:57:15;;;;;;;5.93;1.40;;;16.50;63.00;;;;;;6111448;23;20321;-80
2023/03/14 09:59:44;;;;;;;3.47;1.52;;;16.80;62.10;;;;;;6136356;23;20036;-80
2023/03/14 10:02:24;;;;;;;4.72;1.20;;;16.80;61.20;;;;;;6138272;23;20025;-78
2023/03/14 10:04:54;;;;;;;6.47;1.65;;;17.00;61.50;;;;;;6138173;23;20035;-78
2023/03/14 10:07:32;;;;;;;6.05;1.25;;;17.00;60.70;;;;;;6111016;23;20029;-79
2023/03/14 10:10:00;;;;;;;3.45;0.88;;;17.00;60.70;;;;;;6133583;23;20445;-78
2023/03/14 10:12:35;;;;;;;3.70;0.90;;;17.20;60.50;;;;;;6136540;23;20100;-80
2023/03/14 10:15:09;;;;;;;3.38;0.88;;;17.30;60.40;;;;;;6135629;23;20446;-80
2023/03/14 10:17:41;;;;;;;5.40;1.00;;;17.40;60.00;;;;;;6135975;23;20750;-80
2023/03/14 10:20:33;;;;;;;5.28;1.10;;;17.90;60.30;;;;;;6135073;23;20044;-78
2023/03/14 10:23:05;;;;;;;3.23;0.70;;;17.50;59.40;;;;;;6074124;23;20029;-80
2023/03/14 10:25:35;;;;;;;4.43;0.40;;;17.50;59.60;;;;;;6139117;23;20060;-79
2023/03/14 10:28:04;;;;;;;4.70;1.13;;;17.40;58.80;;;;;;6113563;23;20440;-79
2023/03/14 10:30:45;;;;;;;4.32;1.20;;;17.40;59.30;;;;;;6136486;23;20018;-80
2023/03/14 10:33:34;;;;;;;6.55;1.90;;;17.60;59.30;;;;;;6134602;23;20127;-80
2023/03/14 10:36:03;;;;;;;4.03;1.02;;;17.70;59.70;;;;;;6111056;23;20026;-78
2023/03/14 10:38:36;;;;;;;5.00;1.80;;;17.90;59.70;;;;;;6110744;23;20021;-79
2023/03/14 10:41:25;;;;;;;4.95;1.40;;;18.00;58.90;;;;;;6113374;23;20107;-78
2023/03/14 10:43:56;;;;;;;5.30;1.80;;;18.00;59.80;;;;;;6113892;23;20341;-77
2023/03/14 10:46:29;;;;;;;6.70;1.65;;;18.30;59.00;;;;;;6135931;23;20022;-81
2023/03/14 10:49:30;;;;;;;8.60;1.88;;;18.20;59.40;;;;;;6136188;23;20385;-80
2023/03/14 10:52:24;;;;;;;6.75;2.15;;;18.30;59.50;;;;;;6134376;23;20771;-78
2023/03/14 10:55:12;;;;;;;5.05;1.80;;;18.30;59.60;;;;;;6125686;23;20338;-80
2023/03/14 10:57:41;;;;;;;4.47;1.33;;;18.10;59.60;;;;;;6136766;23;20023;-80
2023/03/14 11:00:19;;;;;;;6.30;1.63;;;18.00;59.80;;;;;;6135033;23;20623;-80
2023/03/14 11:02:46;;;;;;;5.18;1.80;;;18.00;60.90;;;;;;6135916;23;20057;-79
2023/03/14 11:05:38;;;;;;;3.60;1.70;;;18.10;60.50;;;;;;6137380;23;20030;-79
2023/03/14 11:08:18;;;;;;;5.75;1.75;;;18.00;60.30;;;;;;6134312;23;20548;-80
2023/03/14 11:10:51;;;;;;;5.45;1.48;;;18.10;60.90;;;;;;6135971;23;20017;-81
2023/03/14 11:13:21;;;;;;;3.95;0.90;;;18.40;61.50;;;;;;6107617;23;20104;-80
2023/03/14 11:16:08;;;;;;;4.18;1.02;;;18.70;59.20;;;;;;6136104;23;20097;-79
2023/03/14 11:18:59;;;;;;;12.18;4.78;;;18.70;58.20;;;;;;6077233;23;20049;-79
2023/03/14 11:21:40;;;;;;;5.57;1.27;;;18.90;59.30;;;;;;6140328;23;20048;-80
2023/03/14 11:24:18;;;;;;;5.30;0.98;;;19.20;58.80;;;;;;6137253;23;20041;-80
2023/03/14 11:27:06;;;;;;;7.90;0.88;;;19.30;57.40;;;;;;6161883;23;20029;-80
2023/03/14 11:29:52;;;;;;;4.18;0.28;;;19.30;56.50;;;;;;6113824;23;20460;-78
2023/03/14 11:32:35;;;;;;;3.58;0.30;;;19.40;56.20;;;;;;6112159;23;20033;-79
2023/03/14 11:35:28;;;;;;;6.65;0.50;;;19.70;56.10;;;;;;6136112;23;20022;-79
2023/03/14 11:38:10;;;;;;;4.00;0.50;;;19.60;55.40;;;;;;6135579;23;20075;-80
2023/03/14 11:40:39;;;;;;;6.32;0.38;;;19.40;55.40;;;;;;6139165;23;20025;-79
2023/03/14 11:43:19;;;;;;;4.55;0.57;;;19.30;55.60;;;;;;6136591;23;20398;-80
2023/03/14 11:45:49;;;;;;;2.00;0.60;;;19.70;55.90;;;;;;6134729;23;20025;-77
2023/03/14 11:48:39;;;;;;;6.32;0.85;;;19.90;54.90;;;;;;6110305;23;20025;-78
2023/03/14 11:51:24;;;;;;;4.30;0.70;;;20.00;54.70;;;;;;6111030;23;20032;-77
2023/03/14 11:53:57;;;;;;;3.38;0.52;;;19.90;54.50;;;;;;6138901;23;20017;-80
2023/03/14 11:56:42;;;;;;;5.75;0.40;;;19.70;54.80;;;;;;6135517;23;20045;-79
2023/03/14 11:59:27;;;;;;;4.47;0.30;;;19.70;55.00;;;;;;6138584;23;20025;-80
2023/03/14 12:02:05;;;;;;;3.95;0.30;;;19.80;56.00;;;;;;6114976;23;20116;-81
2023/03/14 12:04:47;;;;;;;4.07;0.30;;;19.60;55.10;;;;;;6117281;23;20036;-78
2023/03/14 12:07:26;;;;;;;7.22;0.40;;;19.70;54.80;;;;;;6135321;23;20512;-80
2023/03/14 12:09:54;;;;;;;7.72;0.47;;;20.10;54.60;;;;;;6113008;23;20432;-79
2023/03/14 12:12:25;;;;;;;5.13;0.40;;;19.80;54.30;;;;;;6117043;23;20025;-80
2023/03/14 12:14:59;;;;;;;3.20;0.20;;;19.40;54.10;;;;;;6142103;23;20484;-81
2023/03/14 12:17:36;;;;;;;5.35;0.50;;;19.30;54.60;;;;;;6144372;23;20112;-77
2023/03/14 12:20:21;;;;;;;3.95;0.30;;;19.10;54.80;;;;;;6112556;23;20352;-80
2023/03/14 12:22:53;;;;;;;5.65;0.50;;;18.90;54.70;;;;;;6112183;23;20448;-79
2023/03/14 12:25:26;;;;;;;11.13;0.47;;;18.90;54.70;;;;;;6140260;23;20365;-79
2023/03/14 12:27:56;;;;;;;4.78;0.38;;;19.00;54.80;;;;;;6111484;23;20025;-80
2023/03/14 12:30:41;;;;;;;2.40;0.20;;;18.00;54.30;;;;;;6139916;23;20207;-79
2023/03/14 12:33:17;;;;;;;4.45;0.40;;;18.80;54.60;;;;;;6139013;23;20017;-79
2023/03/14 12:35:49;;;;;;;5.35;0.40;;;18.80;56.30;;;;;;6162073;23;20351;-77
2023/03/14 12:38:29;;;;;;;1.27;0.25;;;18.70;55.30;;;;;;6112913;23;20533;-80
2023/03/14 12:41:07;;;;;;;4.20;0.40;;;18.70;55.10;;;;;;6134527;23;20021;-79
2023/03/14 12:43:35;;;;;;;3.03;0.30;;;18.60;54.60;;;;;;6135973;23;20026;-79
2023/03/14 12:46:17;;;;;;;0.85;0.20;;;18.50;54.80;;;;;;6158264;23;20033;-79
2023/03/14 12:48:50;;;;;;;3.33;0.43;;;18.50;54.80;;;;;;6166249;23;20029;-80
2023/03/14 12:51:37;;;;;;;4.43;0.30;;;18.40;55.20;;;;;;6111926;23;20095;-79
2023/03/14 12:54:20;;;;;;;3.00;0.30;;;18.50;56.20;;;;;;6114149;23;20500;-79
2023/03/14 12:57:14;;;;;;;0.93;0.20;;;18.40;55.50;;;;;;6137398;23;20024;-79
2023/03/14 12:59:50;;;;;;;4.25;0.30;;;18.40;55.40;;;;;;6135062;23;20024;-80
2023/03/14 13:02:41;;;;;;;3.17;0.30;;;18.40;55.20;;;;;;6163114;23;20025;-79
2023/03/14 13:05:15;;;;;;;3.70;0.20;;;18.80;55.10;;;;;;6138394;23;20544;-79
2023/03/14 13:07:43;;;;;;;6.80;0.30;;;18.90;54.60;;;;;;6162794;23;20033;-79
2023/03/14 13:10:22;;;;;;;5.07;0.68;;;18.80;54.00;;;;;;6138328;23;20049;-79
2023/03/14 13:12:54;;;;;;;4.20;0.20;;;18.70;54.10;;;;;;6137748;23;20029;-79
2023/03/14 13:15:28;;;;;;;0.82;0.20;;;18.60;53.90;;;;;;6138916;23;20404;-79
2023/03/14 13:18:10;;;;;;;5.95;0.32;;;18.60;54.00;;;;;;6137201;23;20365;-80
2023/03/14 13:21:01;;;;;;;5.97;1.52;;;18.50;54.50;;;;;;6114208;23;20032;-78
2023/03/14 13:23:32;;;;;;;2.30;0.55;;;17.90;53.90;;;;;;6138039;23;20552;-79
2023/03/14 13:26:01;;;;;;;1.42;0.55;;;18.20;54.70;;;;;;6121693;23;20033;-79